Margaret F. Cooper — WDB9825 — position and weather

sailwx.info

Track history (hours):
 
Tides and Currents Weather Stations Pressure Air Temp Water Temp Dewpoint Dewpoint Depression Visibility Wind Speed Wind Dir Waves Ship Positions

Margaret F. Cooper

More information available from US FCC via Universal Licensing System and Coast Guard Vessel Documentation Center.

Last reported at 2014-Sep-21 01:33 UTC. Time now 2014-Sep-21 02:02 UTC.
Position N 30°03' W 090°34'.

Length 30 m; draft 4.5 m.

Type: Tug. MMSI: 366983480.

Date/timePositionNaut miles runAvg speedWind from/ knotsBaromVisibWave heightAir tempDewpointWater temp
2014-Sep-21 01:33N 30°03' W 090°34'0 0.0
2014-Sep-21 00:33N 30°03' W 090°34'0 0.0
2014-Sep-20 23:33N 30°03' W 090°34'0 0.0
2014-Sep-20 22:33N 30°03' W 090°34'0 0.0
2014-Sep-20 21:33N 30°03' W 090°34'0 0.0
2014-Sep-20 20:33N 30°03' W 090°34'0 0.0
2014-Sep-20 19:33N 30°03' W 090°34'0 0.0
2014-Sep-20 18:33N 30°03' W 090°34'0 0.0
2014-Sep-20 17:33N 30°03' W 090°34'0 0.0
2014-Sep-20 16:33N 30°03' W 090°34'0 0.0
2014-Sep-20 15:33N 30°03' W 090°34'0 0.0
2014-Sep-20 14:33N 30°03' W 090°34'0 0.0
2014-Sep-20 13:33N 30°03' W 090°34'0 0.0
2014-Sep-20 12:33N 30°03' W 090°34'0 0.0
2014-Sep-20 11:33N 30°03' W 090°34'0 0.0
2014-Sep-20 10:33N 30°03' W 090°34'0 0.0
2014-Sep-20 09:33N 30°03' W 090°34'0 0.0
2014-Sep-20 08:33N 30°03' W 090°34'1 0.9
2014-Sep-20 07:33N 30°03' W 090°35'1 1.0
2014-Sep-20 06:33N 30°03' W 090°34'1 0.9
2014-Sep-20 05:33N 30°03' W 090°35'0 0.0
2014-Sep-20 04:33N 30°03' W 090°35'1 0.9
2014-Sep-20 03:33N 30°03' W 090°34'1 1.1
2014-Sep-20 02:33N 30°03' W 090°32'7 7.2
2014-Sep-20 01:33N 29°60' W 090°25'5 0.2
2014-Sep-18 22:06N 30°03' W 090°29'10 0.6
2014-Sep-18 06:26N 29°56' W 090°21'0 0.2
2014-Sep-18 05:26N 29°56' W 090°21'1 0.0
2014-Sep-17 09:28N 29°56' W 090°20'0 0.0
2014-Sep-17 07:07N 29°56' W 090°20'1 0.3
2014-Sep-17 05:33N 29°56' W 090°21'1 1.0
2014-Sep-17 04:29N 29°56' W 090°22'0 0.2
2014-Sep-17 03:30N 29°56' W 090°22'3 3.2
2014-Sep-17 02:33N 29°59' W 090°24'0 0.0
2014-Sep-17 01:33N 29°59' W 090°24'0 0.0
2014-Sep-17 00:33N 29°59' W 090°24'0 0.0
2014-Sep-16 23:33N 29°59' W 090°24'2 1.9
2014-Sep-16 22:33N 29°59' W 090°26'2 0.2
2014-Sep-16 12:31N 29°59' W 090°24'0 0.0
2014-Sep-16 11:33N 29°59' W 090°24'0 0.0
2014-Sep-16 10:33N 29°59' W 090°24'0 0.0
2014-Sep-16 09:33N 29°59' W 090°24'0 0.0
2014-Sep-16 08:33N 29°59' W 090°24'0 0.0
2014-Sep-16 07:33N 29°59' W 090°24'0 0.0
2014-Sep-16 06:33N 29°59' W 090°24'0 0.0
2014-Sep-16 05:33N 29°59' W 090°24'0 0.0
2014-Sep-16 04:33N 29°59' W 090°24'0 0.0
2014-Sep-16 03:32N 29°59' W 090°24'0 0.0
2014-Sep-16 02:33N 29°59' W 090°24'0 0.0
2014-Sep-16 01:33N 29°59' W 090°24'0 0.2
2014-Sep-16 00:33N 29°59' W 090°24'0 0.2
2014-Sep-15 23:33N 29°59' W 090°24'6 0.5
2014-Sep-15 12:20N 30°03' W 090°29'0 0.0
2014-Sep-15 11:33N 30°03' W 090°29'0 0.0
2014-Sep-15 10:33N 30°03' W 090°29'0 0.0
2014-Sep-15 09:33N 30°03' W 090°29'0 0.0
2014-Sep-15 08:33N 30°03' W 090°29'0 0.0
2014-Sep-15 07:33N 30°03' W 090°29'0 0.0
2014-Sep-15 06:33N 30°03' W 090°29'1 0.9
2014-Sep-15 05:33N 30°03' W 090°30'1 1.0
2014-Sep-15 04:33N 30°03' W 090°29'0 0.0
2014-Sep-15 03:33N 30°03' W 090°29'5 5.2
2014-Sep-15 02:33N 30°03' W 090°35'1 1.1
2014-Sep-15 01:33N 30°03' W 090°33'6 5.5
2014-Sep-15 00:33N 29°60' W 090°28'4 3.9
2014-Sep-14 23:33N 29°59' W 090°24'0 0.0
2014-Sep-14 22:33N 29°59' W 090°24'0 0.0
2014-Sep-14 21:33N 29°59' W 090°24'0 0.0
2014-Sep-14 20:33N 29°59' W 090°24'0 0.0
2014-Sep-14 19:33N 29°59' W 090°24'0 0.0
2014-Sep-14 18:33N 29°59' W 090°24'0 0.0
2014-Sep-14 17:33N 29°59' W 090°24'0 0.0
2014-Sep-14 12:33N 29°59' W 090°24'0 0.3
2014-Sep-14 11:33N 29°59' W 090°24'0 0.2
2014-Sep-14 10:33N 29°59' W 090°24'3 3.4
2014-Sep-14 09:33N 29°56' W 090°21'0 0.1
2014-Sep-14 07:17N 29°56' W 090°21'810.9
2014-Sep-14 06:33N 30°01' W 090°28'5 4.9
2014-Sep-14 05:33N 30°03' W 090°34'0 0.0
2014-Sep-14 04:33N 30°03' W 090°34'0 0.0
2014-Sep-14 03:33N 30°03' W 090°34'0 0.0
2014-Sep-14 02:33N 30°03' W 090°34'0 0.0
2014-Sep-14 01:33N 30°03' W 090°34'0 0.0
2014-Sep-13 21:33N 30°03' W 090°34'0 0.0
2014-Sep-13 20:33N 30°03' W 090°34'0 0.0
2014-Sep-13 19:33N 30°03' W 090°34'0 0.0
2014-Sep-13 18:33N 30°03' W 090°34'0 0.0
2014-Sep-13 17:33N 30°03' W 090°34'0 0.0
2014-Sep-13 16:33N 30°03' W 090°34'0 0.0
2014-Sep-13 15:33N 30°03' W 090°34'0 0.0
2014-Sep-13 14:33N 30°03' W 090°34'0 0.0
2014-Sep-13 13:33N 30°03' W 090°34'0 0.0
2014-Sep-13 12:33N 30°03' W 090°34'2 1.9
2014-Sep-13 11:33N 30°03' W 090°36'1 0.7
2014-Sep-13 10:33N 30°03' W 090°35'0 0.0
2014-Sep-13 09:33N 30°03' W 090°35'1 0.3
2014-Sep-13 05:14N 30°02' W 090°36'7 1.0
2014-Sep-12 22:26N 30°03' W 090°29'6 0.6
2014-Sep-12 12:33N 29°59' W 090°24'0 0.0
2014-Sep-12 11:33N 29°59' W 090°24'1 0.7
2014-Sep-12 10:33N 29°58' W 090°24'1 0.9
2014-Sep-12 09:33N 29°59' W 090°24'4 0.6
2014-Sep-12 02:27N 29°56' W 090°20'0 0.0
2014-Sep-11 23:32N 29°56' W 090°20'110 5.6
2014-Sep-11 04:06N 29°23' W 088°20'11171.5
2014-Sep-11 02:33N 29°56' W 090°21'  
Track history (hours):
 
Tides and Currents Weather Stations Pressure Air Temp Water Temp Dewpoint Dewpoint Depression Visibility Wind Speed Wind Dir Waves Ship Positions

Margaret F. Cooper

More information available from US FCC via Universal Licensing System and Coast Guard Vessel Documentation Center.

Last reported at 2014-Sep-21 01:33 UTC. Time now 2014-Sep-21 02:02 UTC.
Position N 30°03' W 090°34'.

Length 30 m; draft 4.5 m.

Type: Tug. MMSI: 366983480.

Date/timePositionNaut miles runAvg speedWind from/ knotsBaromVisibWave heightAir tempDewpointWater temp
2014-Sep-21 01:33N 30°03' W 090°34'0 0.0
2014-Sep-21 00:33N 30°03' W 090°34'0 0.0
2014-Sep-20 23:33N 30°03' W 090°34'0 0.0
2014-Sep-20 22:33N 30°03' W 090°34'0 0.0
2014-Sep-20 21:33N 30°03' W 090°34'0 0.0
2014-Sep-20 20:33N 30°03' W 090°34'0 0.0
2014-Sep-20 19:33N 30°03' W 090°34'0 0.0
2014-Sep-20 18:33N 30°03' W 090°34'0 0.0
2014-Sep-20 17:33N 30°03' W 090°34'0 0.0
2014-Sep-20 16:33N 30°03' W 090°34'0 0.0
2014-Sep-20 15:33N 30°03' W 090°34'0 0.0
2014-Sep-20 14:33N 30°03' W 090°34'0 0.0
2014-Sep-20 13:33N 30°03' W 090°34'0 0.0
2014-Sep-20 12:33N 30°03' W 090°34'0 0.0
2014-Sep-20 11:33N 30°03' W 090°34'0 0.0
2014-Sep-20 10:33N 30°03' W 090°34'0 0.0
2014-Sep-20 09:33N 30°03' W 090°34'0 0.0
2014-Sep-20 08:33N 30°03' W 090°34'1 0.9
2014-Sep-20 07:33N 30°03' W 090°35'1 1.0
2014-Sep-20 06:33N 30°03' W 090°34'1 0.9
2014-Sep-20 05:33N 30°03' W 090°35'0 0.0
2014-Sep-20 04:33N 30°03' W 090°35'1 0.9
2014-Sep-20 03:33N 30°03' W 090°34'1 1.1
2014-Sep-20 02:33N 30°03' W 090°32'7 7.2
2014-Sep-20 01:33N 29°60' W 090°25'5 0.2
2014-Sep-18 22:06N 30°03' W 090°29'10 0.6
2014-Sep-18 06:26N 29°56' W 090°21'0 0.2
2014-Sep-18 05:26N 29°56' W 090°21'1 0.0
2014-Sep-17 09:28N 29°56' W 090°20'0 0.0
2014-Sep-17 07:07N 29°56' W 090°20'1 0.3
2014-Sep-17 05:33N 29°56' W 090°21'1 1.0
2014-Sep-17 04:29N 29°56' W 090°22'0 0.2
2014-Sep-17 03:30N 29°56' W 090°22'3 3.2
2014-Sep-17 02:33N 29°59' W 090°24'0 0.0
2014-Sep-17 01:33N 29°59' W 090°24'0 0.0
2014-Sep-17 00:33N 29°59' W 090°24'0 0.0
2014-Sep-16 23:33N 29°59' W 090°24'2 1.9
2014-Sep-16 22:33N 29°59' W 090°26'2 0.2
2014-Sep-16 12:31N 29°59' W 090°24'0 0.0
2014-Sep-16 11:33N 29°59' W 090°24'0 0.0
2014-Sep-16 10:33N 29°59' W 090°24'0 0.0
2014-Sep-16 09:33N 29°59' W 090°24'0 0.0
2014-Sep-16 08:33N 29°59' W 090°24'0 0.0
2014-Sep-16 07:33N 29°59' W 090°24'0 0.0
2014-Sep-16 06:33N 29°59' W 090°24'0 0.0
2014-Sep-16 05:33N 29°59' W 090°24'0 0.0
2014-Sep-16 04:33N 29°59' W 090°24'0 0.0
2014-Sep-16 03:32N 29°59' W 090°24'0 0.0
2014-Sep-16 02:33N 29°59' W 090°24'0 0.0
2014-Sep-16 01:33N 29°59' W 090°24'0 0.2
2014-Sep-16 00:33N 29°59' W 090°24'0 0.2
2014-Sep-15 23:33N 29°59' W 090°24'6 0.5
2014-Sep-15 12:20N 30°03' W 090°29'0 0.0
2014-Sep-15 11:33N 30°03' W 090°29'0 0.0
2014-Sep-15 10:33N 30°03' W 090°29'0 0.0
2014-Sep-15 09:33N 30°03' W 090°29'0 0.0
2014-Sep-15 08:33N 30°03' W 090°29'0 0.0
2014-Sep-15 07:33N 30°03' W 090°29'0 0.0
2014-Sep-15 06:33N 30°03' W 090°29'1 0.9
2014-Sep-15 05:33N 30°03' W 090°30'1 1.0
2014-Sep-15 04:33N 30°03' W 090°29'0 0.0
2014-Sep-15 03:33N 30°03' W 090°29'5 5.2
2014-Sep-15 02:33N 30°03' W 090°35'1 1.1
2014-Sep-15 01:33N 30°03' W 090°33'6 5.5
2014-Sep-15 00:33N 29°60' W 090°28'4 3.9
2014-Sep-14 23:33N 29°59' W 090°24'0 0.0
2014-Sep-14 22:33N 29°59' W 090°24'0 0.0
2014-Sep-14 21:33N 29°59' W 090°24'0 0.0
2014-Sep-14 20:33N 29°59' W 090°24'0 0.0
2014-Sep-14 19:33N 29°59' W 090°24'0 0.0
2014-Sep-14 18:33N 29°59' W 090°24'0 0.0
2014-Sep-14 17:33N 29°59' W 090°24'0 0.0
2014-Sep-14 12:33N 29°59' W 090°24'0 0.3
2014-Sep-14 11:33N 29°59' W 090°24'0 0.2
2014-Sep-14 10:33N 29°59' W 090°24'3 3.4
2014-Sep-14 09:33N 29°56' W 090°21'0 0.1
2014-Sep-14 07:17N 29°56' W 090°21'810.9
2014-Sep-14 06:33N 30°01' W 090°28'5 4.9
2014-Sep-14 05:33N 30°03' W 090°34'0 0.0
2014-Sep-14 04:33N 30°03' W 090°34'0 0.0
2014-Sep-14 03:33N 30°03' W 090°34'0 0.0
2014-Sep-14 02:33N 30°03' W 090°34'0 0.0
2014-Sep-14 01:33N 30°03' W 090°34'0 0.0
2014-Sep-13 21:33N 30°03' W 090°34'0 0.0
2014-Sep-13 20:33N 30°03' W 090°34'0 0.0
2014-Sep-13 19:33N 30°03' W 090°34'0 0.0
2014-Sep-13 18:33N 30°03' W 090°34'0 0.0
2014-Sep-13 17:33N 30°03' W 090°34'0 0.0
2014-Sep-13 16:33N 30°03' W 090°34'0 0.0
2014-Sep-13 15:33N 30°03' W 090°34'0 0.0
2014-Sep-13 14:33N 30°03' W 090°34'0 0.0
2014-Sep-13 13:33N 30°03' W 090°34'0 0.0
2014-Sep-13 12:33N 30°03' W 090°34'2 1.9
2014-Sep-13 11:33N 30°03' W 090°36'1 0.7
2014-Sep-13 10:33N 30°03' W 090°35'0 0.0
2014-Sep-13 09:33N 30°03' W 090°35'1 0.3
2014-Sep-13 05:14N 30°02' W 090°36'7 1.0
2014-Sep-12 22:26N 30°03' W 090°29'6 0.6
2014-Sep-12 12:33N 29°59' W 090°24'0 0.0
2014-Sep-12 11:33N 29°59' W 090°24'1 0.7
2014-Sep-12 10:33N 29°58' W 090°24'1 0.9
2014-Sep-12 09:33N 29°59' W 090°24'4 0.6
2014-Sep-12 02:27N 29°56' W 090°20'0 0.0
2014-Sep-11 23:32N 29°56' W 090°20'110 5.6
2014-Sep-11 04:06N 29°23' W 088°20'11171.5
2014-Sep-11 02:33N 29°56' W 090°21'  

Dump ship's entire track history